createdAt,value
2018-11-05T00:00:55.078Z,15.73
2018-11-05T00:03:26.464Z,15.93
2018-11-05T00:05:58.081Z,15.97
2018-11-05T00:08:31.012Z,16.03
2018-11-05T00:11:02.265Z,14.80
2018-11-05T00:13:33.715Z,15.63
2018-11-05T00:16:05.110Z,14.50
2018-11-05T00:18:36.504Z,15.27
2018-11-05T00:21:08.070Z,15.40
2018-11-05T00:23:39.939Z,14.80
2018-11-05T00:26:12.070Z,14.27
2018-11-05T00:28:43.173Z,14.23
2018-11-05T00:31:15.570Z,14.07
2018-11-05T00:33:46.780Z,13.63
2018-11-05T00:36:18.342Z,14.83
2018-11-05T00:38:50.604Z,15.40
2018-11-05T00:41:22.174Z,16.17
2018-11-05T00:43:53.810Z,15.87
2018-11-05T00:46:25.879Z,15.93
2018-11-05T00:48:58.415Z,15.63
2018-11-05T00:51:30.684Z,15.30
2018-11-05T00:54:02.615Z,14.43
2018-11-05T00:56:35.093Z,17.00
2018-11-05T00:59:07.630Z,17.30
2018-11-05T01:01:39.259Z,17.90
2018-11-05T01:04:11.377Z,18.80
2018-11-05T01:06:43.213Z,18.13
2018-11-05T01:09:15.199Z,19.33
2018-11-05T01:11:46.776Z,19.07
2018-11-05T01:14:18.261Z,20.10
2018-11-05T01:16:50.217Z,20.23
2018-11-05T01:19:21.797Z,18.47
2018-11-05T01:21:53.368Z,18.03
2018-11-05T01:24:25.613Z,18.77
2018-11-05T01:26:57.255Z,18.97
2018-11-05T01:29:28.877Z,19.27
2018-11-05T01:32:00.872Z,20.97
2018-11-05T01:34:31.783Z,19.07
2018-11-05T01:37:03.698Z,19.63
2018-11-05T01:39:35.722Z,19.00
2018-11-05T01:42:07.418Z,19.50
2018-11-05T01:44:38.953Z,19.50
2018-11-05T01:47:11.114Z,41.47
2018-11-05T01:49:42.488Z,46.23
2018-11-05T01:52:14.315Z,23.03
2018-11-05T01:54:46.155Z,21.83
2018-11-05T01:57:18.129Z,18.27
2018-11-05T01:59:50.199Z,35.47
2018-11-05T02:02:22.047Z,29.50
2018-11-05T02:04:54.152Z,24.77
2018-11-05T02:07:26.345Z,22.83
2018-11-05T02:09:57.708Z,23.17
2018-11-05T02:12:29.474Z,22.40
2018-11-05T02:15:02.328Z,35.80
2018-11-05T02:17:34.039Z,31.67
2018-11-05T02:20:06.674Z,24.10
2018-11-05T02:22:38.605Z,30.97
2018-11-05T02:25:11.804Z,40.87
2018-11-05T02:27:43.733Z,29.43
2018-11-05T02:30:18.761Z,27.07
2018-11-05T02:32:50.247Z,23.60
2018-11-05T02:35:21.930Z,20.77
2018-11-05T02:37:53.622Z,20.63
2018-11-05T02:40:25.692Z,20.90
2018-11-05T02:42:57.283Z,18.63
2018-11-05T02:45:29.702Z,19.43
2018-11-05T02:48:01.193Z,18.37
2018-11-05T02:50:33.504Z,18.30
2018-11-05T02:53:04.947Z,19.80
2018-11-05T02:55:36.516Z,20.40
2018-11-05T02:58:08.132Z,19.20
2018-11-05T03:00:39.756Z,19.80
2018-11-05T03:03:11.720Z,20.23
2018-11-05T03:05:43.309Z,19.27
2018-11-05T03:08:14.957Z,19.10
2018-11-05T03:10:46.234Z,18.53
2018-11-05T03:13:18.093Z,24.10
2018-11-05T03:15:49.653Z,21.60
2018-11-05T03:18:20.589Z,22.10
2018-11-05T03:20:51.583Z,21.10
2018-11-05T03:23:23.321Z,22.43
2018-11-05T03:25:55.645Z,20.97
2018-11-05T03:28:27.297Z,22.07
2018-11-05T03:30:59.040Z,23.50
2018-11-05T03:33:30.633Z,20.93
2018-11-05T03:36:02.133Z,20.63
2018-11-05T03:38:33.541Z,20.07
2018-11-05T03:41:04.770Z,18.83
2018-11-05T03:43:36.543Z,23.37
2018-11-05T03:46:08.383Z,20.77
2018-11-05T03:48:40.224Z,20.17
2018-11-05T03:51:11.741Z,21.90
2018-11-05T03:53:43.942Z,19.40
2018-11-05T03:56:15.662Z,18.73
2018-11-05T03:58:47.108Z,20.57
2018-11-05T04:01:18.984Z,21.27
2018-11-05T04:03:50.606Z,19.60
2018-11-05T04:06:22.140Z,19.53
2018-11-05T04:08:53.839Z,20.40
2018-11-05T04:11:25.052Z,20.40
2018-11-05T04:13:57.306Z,21.30
2018-11-05T04:16:29.313Z,19.67
2018-11-05T04:19:00.616Z,21.23
2018-11-05T04:21:46.190Z,21.03
2018-11-05T04:24:17.829Z,20.30
2018-11-05T04:26:48.991Z,21.73
2018-11-05T04:29:20.828Z,22.33
2018-11-05T04:31:52.284Z,20.10
2018-11-05T04:34:23.600Z,21.23
2018-11-05T04:36:56.234Z,22.67
2018-11-05T04:39:27.562Z,19.40
2018-11-05T04:41:59.451Z,21.27
2018-11-05T04:44:30.888Z,25.03
2018-11-05T04:47:03.186Z,21.37
2018-11-05T04:49:35.121Z,19.37
2018-11-05T04:52:07.515Z,20.93
2018-11-05T04:54:39.425Z,23.03
2018-11-05T04:57:11.123Z,21.97
2018-11-05T04:59:43.080Z,24.53
2018-11-05T05:02:15.103Z,23.20
2018-11-05T05:04:46.903Z,20.80
2018-11-05T05:07:18.413Z,22.93
2018-11-05T05:09:49.796Z,22.47
2018-11-05T05:12:22.787Z,22.53
2018-11-05T05:14:53.921Z,22.90
2018-11-05T05:17:25.226Z,23.10
2018-11-05T05:19:57.612Z,23.87
2018-11-05T05:22:29.468Z,23.70
2018-11-05T05:25:01.433Z,22.80
2018-11-05T05:27:32.720Z,25.37
2018-11-05T05:30:05.898Z,26.43
2018-11-05T05:32:38.500Z,24.17
2018-11-05T05:35:10.247Z,26.27
2018-11-05T05:37:43.503Z,25.57
2018-11-05T05:40:16.111Z,24.83
2018-11-05T05:42:47.634Z,29.83
2018-11-05T05:45:19.425Z,27.90
2018-11-05T05:47:51.734Z,26.93
2018-11-05T05:50:23.291Z,27.40
2018-11-05T05:52:54.952Z,29.30
2018-11-05T05:55:27.613Z,32.47
2018-11-05T05:57:59.419Z,29.17
2018-11-05T06:00:31.668Z,31.30
2018-11-05T06:03:03.932Z,30.20
2018-11-05T06:05:35.027Z,28.93
2018-11-05T06:08:06.339Z,29.70
2018-11-05T06:10:38.887Z,28.73
2018-11-05T06:13:11.052Z,29.80
2018-11-05T06:15:43.042Z,30.30
2018-11-05T06:18:14.565Z,28.67
2018-11-05T06:20:45.591Z,34.20
2018-11-05T06:23:16.636Z,31.63
2018-11-05T06:25:47.835Z,32.40
2018-11-05T06:28:19.421Z,34.67
2018-11-05T06:30:51.872Z,31.13
2018-11-05T06:33:23.280Z,29.53
2018-11-05T06:35:55.191Z,31.03
2018-11-05T06:38:26.377Z,32.97
2018-11-05T06:40:58.185Z,25.30
2018-11-05T06:43:29.889Z,25.97
2018-11-05T06:46:00.986Z,23.23
2018-11-05T06:48:32.463Z,23.23
2018-11-05T06:51:03.529Z,24.93
2018-11-05T06:53:35.506Z,26.50
2018-11-05T06:56:07.657Z,30.63
2018-11-05T06:58:41.455Z,29.70
2018-11-05T07:01:12.623Z,32.27
2018-11-05T07:03:44.225Z,28.27
2018-11-05T07:06:15.614Z,26.97
2018-11-05T07:08:46.990Z,26.83
2018-11-05T07:11:18.862Z,29.10
2018-11-05T07:13:49.842Z,26.93
2018-11-05T07:16:21.234Z,26.40
2018-11-05T07:18:52.923Z,26.03
2018-11-05T07:21:24.368Z,24.67
2018-11-05T07:23:55.608Z,22.83
2018-11-05T07:26:26.658Z,23.80
2018-11-05T07:28:57.980Z,23.80
2018-11-05T07:31:29.486Z,23.13
2018-11-05T07:34:00.605Z,25.67
2018-11-05T07:36:32.685Z,27.30
2018-11-05T07:39:05.061Z,23.67
2018-11-05T07:41:36.533Z,23.57
2018-11-05T07:44:08.439Z,24.70
2018-11-05T07:46:40.048Z,24.10
2018-11-05T07:49:11.554Z,25.80
2018-11-05T07:51:43.523Z,25.37
2018-11-05T07:54:15.105Z,27.57
2018-11-05T07:56:46.704Z,27.30
2018-11-05T07:59:18.406Z,26.20
2018-11-05T08:01:49.777Z,25.07
2018-11-05T08:04:20.851Z,22.10
2018-11-05T08:08:16.030Z,20.30
2018-11-05T08:10:47.798Z,20.60
2018-11-05T08:13:19.613Z,19.83
2018-11-05T08:15:50.684Z,20.87
2018-11-05T08:18:22.534Z,21.83
2018-11-05T08:20:54.052Z,22.80
2018-11-05T08:23:26.577Z,23.63
2018-11-05T08:25:58.205Z,22.20
2018-11-05T08:28:29.844Z,22.60
2018-11-05T08:31:01.678Z,21.50
2018-11-05T08:33:33.732Z,22.57
2018-11-05T08:36:05.238Z,22.40
2018-11-05T08:38:36.530Z,22.50
2018-11-05T08:41:08.526Z,21.70
2018-11-05T08:43:39.557Z,22.50
2018-11-05T08:46:11.712Z,32.20
2018-11-05T08:48:43.419Z,25.30
2018-11-05T08:51:15.543Z,25.77
2018-11-05T08:53:47.642Z,26.60
2018-11-05T08:56:18.768Z,27.70
2018-11-05T08:58:49.827Z,30.23
2018-11-05T09:01:21.224Z,24.97
2018-11-05T09:03:53.872Z,21.90
2018-11-05T09:06:25.997Z,28.87
2018-11-05T09:08:57.790Z,30.67
2018-11-05T09:11:29.674Z,26.00
2018-11-05T09:14:01.230Z,41.23
2018-11-05T09:16:33.049Z,32.70
2018-11-05T09:19:04.479Z,22.67
2018-11-05T09:21:36.053Z,26.23
2018-11-05T09:24:08.099Z,24.10
2018-11-05T09:26:39.838Z,22.10
2018-11-05T09:29:11.727Z,49.90
2018-11-05T09:31:43.456Z,36.33
2018-11-05T09:34:15.104Z,25.10
2018-11-05T09:36:47.467Z,23.70
2018-11-05T09:39:19.025Z,20.50
2018-11-05T09:41:50.132Z,18.10
2018-11-05T09:44:22.183Z,26.43
2018-11-05T09:46:53.854Z,28.20
2018-11-05T09:49:25.679Z,26.40
2018-11-05T09:51:57.706Z,31.23
2018-11-05T09:54:30.504Z,23.00
2018-11-05T09:57:01.940Z,22.10
2018-11-05T09:59:33.249Z,20.03
2018-11-05T10:02:05.819Z,19.53
2018-11-05T10:04:37.217Z,18.93
2018-11-05T10:07:09.622Z,21.37
2018-11-05T10:09:41.218Z,41.27
2018-11-05T10:12:12.755Z,22.10
2018-11-05T10:14:44.363Z,24.73
2018-11-05T10:17:16.355Z,20.00
2018-11-05T10:19:47.705Z,18.77
2018-11-05T10:22:19.307Z,26.73
2018-11-05T10:24:51.400Z,22.83
2018-11-05T10:27:24.618Z,24.63
2018-11-05T10:29:56.376Z,22.27
2018-11-05T10:32:27.812Z,21.93
2018-11-05T10:34:59.517Z,23.33
2018-11-05T10:37:32.577Z,22.23
2018-11-05T10:40:03.670Z,22.53
2018-11-05T10:42:35.325Z,20.13
2018-11-05T10:45:07.013Z,22.50
2018-11-05T10:47:38.521Z,22.67
2018-11-05T10:50:10.353Z,21.47
2018-11-05T10:52:42.939Z,20.93
2018-11-05T10:55:14.295Z,29.40
2018-11-05T10:57:45.670Z,23.60
2018-11-05T11:00:22.628Z,22.80
2018-11-05T11:02:58.197Z,22.43
2018-11-05T11:05:30.098Z,22.40
2018-11-05T11:08:02.735Z,23.03
2018-11-05T11:10:35.141Z,23.77
2018-11-05T11:13:07.199Z,22.83
2018-11-05T11:15:38.726Z,22.90
2018-11-05T11:18:11.499Z,23.00
2018-11-05T11:20:42.466Z,26.70
2018-11-05T11:23:13.807Z,25.27
2018-11-05T11:25:45.023Z,26.93
2018-11-05T11:28:16.444Z,24.50
2018-11-05T11:30:48.419Z,23.53
2018-11-05T11:33:19.430Z,26.27
2018-11-05T11:35:50.784Z,26.00
2018-11-05T11:38:22.802Z,25.43
2018-11-05T11:40:55.243Z,31.30
2018-11-05T11:43:26.773Z,27.00
2018-11-05T11:45:57.814Z,24.90
2018-11-05T11:48:29.132Z,23.90
2018-11-05T11:51:01.273Z,24.40
2018-11-05T11:53:32.862Z,23.40
2018-11-05T11:56:04.188Z,23.67
2018-11-05T11:58:35.815Z,24.23
2018-11-05T12:01:07.139Z,25.20
2018-11-05T12:03:38.450Z,25.23
2018-11-05T12:06:09.777Z,23.90
2018-11-05T12:08:41.351Z,24.80
2018-11-05T12:11:13.224Z,27.83
2018-11-05T12:13:44.606Z,25.10
2018-11-05T12:16:15.957Z,25.10
2018-11-05T12:18:48.397Z,26.87
2018-11-05T12:21:20.140Z,28.30
2018-11-05T12:23:51.892Z,25.23
2018-11-05T12:26:23.056Z,24.40
2018-11-05T12:28:55.116Z,26.80
2018-11-05T12:31:28.074Z,27.27
2018-11-05T12:33:59.719Z,25.97
2018-11-05T12:36:31.802Z,24.43
2018-11-05T12:39:04.046Z,24.33
2018-11-05T12:41:35.394Z,27.13
2018-11-05T12:44:07.431Z,26.57
2018-11-05T12:46:39.577Z,25.67
2018-11-05T12:49:11.240Z,26.00
2018-11-05T12:51:42.161Z,23.87
2018-11-05T12:54:13.151Z,25.00
2018-11-05T12:56:44.610Z,23.80
2018-11-05T12:59:15.796Z,24.10
2018-11-05T13:01:47.176Z,27.57
2018-11-05T13:04:18.743Z,25.67
2018-11-05T13:06:50.797Z,23.10
2018-11-05T13:09:22.147Z,24.20
2018-11-05T13:11:53.367Z,23.43
2018-11-05T13:14:24.444Z,23.50
2018-11-05T13:16:56.192Z,25.70
2018-11-05T13:19:27.546Z,23.20
2018-11-05T13:21:58.626Z,24.40
2018-11-05T13:24:29.731Z,23.80
2018-11-05T13:27:00.842Z,24.00
2018-11-05T13:29:32.422Z,24.87
2018-11-05T13:32:03.724Z,22.70
2018-11-05T13:34:35.550Z,23.83
2018-11-05T13:37:07.972Z,23.90
2018-11-05T13:39:39.030Z,25.80
2018-11-05T13:42:10.400Z,25.43
2018-11-05T13:44:41.433Z,25.83
2018-11-05T13:47:13.709Z,28.20
2018-11-05T13:49:45.150Z,28.27
2018-11-05T13:52:16.258Z,25.13
2018-11-05T13:54:47.697Z,24.70
2018-11-05T13:57:19.154Z,28.40
2018-11-05T13:59:50.223Z,25.30
2018-11-05T14:02:21.594Z,24.63
2018-11-05T14:04:52.739Z,27.57
2018-11-05T14:07:23.714Z,28.77
2018-11-05T14:09:55.226Z,31.37
2018-11-05T14:12:26.963Z,26.30
2018-11-05T14:14:58.316Z,26.50
2018-11-05T14:17:31.650Z,26.93
2018-11-05T14:20:02.716Z,27.37
2018-11-05T14:22:34.066Z,26.93
2018-11-05T14:25:06.164Z,26.70
2018-11-05T14:27:37.681Z,27.47
2018-11-05T14:30:10.654Z,27.37
2018-11-05T14:32:43.133Z,27.47
2018-11-05T14:35:15.146Z,26.10
2018-11-05T14:37:46.740Z,25.17
2018-11-05T14:40:19.218Z,27.17
2018-11-05T14:42:50.507Z,28.30
2018-11-05T14:45:22.467Z,26.50
2018-11-05T14:47:54.110Z,26.43
2018-11-05T14:50:25.187Z,27.40
2018-11-05T14:52:56.566Z,26.77
2018-11-05T14:55:28.355Z,25.23
2018-11-05T14:58:00.082Z,26.77
2018-11-05T15:00:31.954Z,26.27
2018-11-05T15:03:03.258Z,25.50
2018-11-05T15:05:34.600Z,26.17
2018-11-05T15:08:10.001Z,26.13
2018-11-05T15:10:45.035Z,27.17
2018-11-05T15:13:18.461Z,29.27
2018-11-05T15:15:50.619Z,29.40
2018-11-05T15:18:22.034Z,29.63
2018-11-05T15:20:54.102Z,26.83
2018-11-05T15:23:26.323Z,27.33
2018-11-05T15:25:57.655Z,29.03
2018-11-05T15:28:29.127Z,30.00
2018-11-05T15:31:00.559Z,27.80
2018-11-05T15:33:32.343Z,28.00
2018-11-05T15:36:03.776Z,28.37
2018-11-05T15:38:34.984Z,27.10
2018-11-05T15:41:06.637Z,26.73
2018-11-05T15:43:38.454Z,28.50
2018-11-05T15:46:09.998Z,36.30
2018-11-05T15:48:41.127Z,27.83
2018-11-05T15:51:12.790Z,29.43
2018-11-05T15:53:44.080Z,29.27
2018-11-05T15:56:15.225Z,27.33
2018-11-05T15:58:46.779Z,26.37
2018-11-05T16:01:18.011Z,28.43
2018-11-05T16:03:49.672Z,28.07
2018-11-05T16:06:22.376Z,28.20
2018-11-05T16:08:53.571Z,30.17
2018-11-05T16:11:24.879Z,26.80
2018-11-05T16:13:56.636Z,29.10
2018-11-05T16:16:27.994Z,29.77
2018-11-05T16:18:59.318Z,28.60
2018-11-05T16:21:31.433Z,34.90
2018-11-05T16:24:04.676Z,31.00
2018-11-05T16:26:36.518Z,29.50
2018-11-05T16:29:07.701Z,28.77
2018-11-05T16:31:40.290Z,29.20
2018-11-05T16:34:12.509Z,27.00
2018-11-05T16:36:43.576Z,29.23
2018-11-05T16:39:15.507Z,26.20
2018-11-05T16:41:48.165Z,26.60
2018-11-05T16:44:19.910Z,30.80
2018-11-05T16:46:51.147Z,28.33
2018-11-05T16:49:23.028Z,28.60
2018-11-05T16:51:57.085Z,31.90
2018-11-05T16:54:28.950Z,29.53
2018-11-05T16:57:01.713Z,34.83
2018-11-05T16:59:37.080Z,31.30
2018-11-05T17:02:16.947Z,29.37
2018-11-05T17:04:48.432Z,29.47
2018-11-05T17:07:20.238Z,30.27
2018-11-05T17:09:51.721Z,35.80
2018-11-05T17:12:24.228Z,34.00
2018-11-05T17:14:58.185Z,30.13
2018-11-05T17:17:29.372Z,29.07
2018-11-05T17:20:01.067Z,29.13
2018-11-05T17:22:32.165Z,30.30
2018-11-05T17:25:04.159Z,25.90
2018-11-05T17:27:35.466Z,29.27
2018-11-05T17:30:10.434Z,32.60
2018-11-05T17:32:42.408Z,30.37
2018-11-05T17:35:15.221Z,28.40
2018-11-05T17:37:48.065Z,28.87
2018-11-05T17:40:24.108Z,31.37
2018-11-05T17:42:55.639Z,29.17
2018-11-05T17:45:28.546Z,30.30
2018-11-05T17:47:59.893Z,31.70
2018-11-05T17:50:33.170Z,32.00
2018-11-05T17:53:05.603Z,29.73
2018-11-05T17:55:41.328Z,30.93
2018-11-05T17:58:14.876Z,31.07
2018-11-05T18:00:49.838Z,32.60
2018-11-05T18:03:30.473Z,33.17
2018-11-05T18:06:10.366Z,28.40
2018-11-05T18:08:46.950Z,33.30
2018-11-05T18:11:23.801Z,29.87
2018-11-05T18:14:08.153Z,30.17
2018-11-05T18:16:50.795Z,32.83
2018-11-05T18:19:22.525Z,35.67
2018-11-05T18:21:56.475Z,31.67
2018-11-05T18:24:27.669Z,37.23
2018-11-05T18:26:59.604Z,32.33
2018-11-05T18:29:30.759Z,30.07
2018-11-05T18:32:02.696Z,29.37
2018-11-05T18:34:36.336Z,31.70
2018-11-05T18:37:08.969Z,36.13
2018-11-05T18:39:41.740Z,33.43
2018-11-05T18:42:14.365Z,34.30
2018-11-05T18:44:46.420Z,30.77
2018-11-05T18:47:18.124Z,35.10
2018-11-05T18:49:49.203Z,33.40
2018-11-05T18:52:20.868Z,34.13
2018-11-05T18:54:52.234Z,31.43
2018-11-05T18:57:23.684Z,31.20
2018-11-05T18:59:55.244Z,30.60
2018-11-05T19:02:31.148Z,33.50
2018-11-05T19:05:03.507Z,32.77
2018-11-05T19:07:35.223Z,31.27
2018-11-05T19:10:08.189Z,28.53
2018-11-05T19:12:40.631Z,32.27
2018-11-05T19:15:13.775Z,30.53
2018-11-05T19:17:46.404Z,31.60
2018-11-05T19:20:17.883Z,32.17
2018-11-05T19:22:49.653Z,27.33
2018-11-05T19:25:21.177Z,28.57
2018-11-05T19:27:53.597Z,27.47
2018-11-05T19:30:26.762Z,29.63
2018-11-05T19:32:58.899Z,29.10
2018-11-05T19:35:32.118Z,28.90
2018-11-05T19:38:04.031Z,34.73
2018-11-05T19:40:35.044Z,31.17
2018-11-05T19:43:31.648Z,31.70
2018-11-05T19:50:48.844Z,26.63
2018-11-05T19:53:20.136Z,23.70
2018-11-05T19:55:51.659Z,21.97
2018-11-05T19:58:23.098Z,26.33
2018-11-05T20:00:55.976Z,22.43
2018-11-05T20:03:27.519Z,23.00
2018-11-05T20:06:00.238Z,20.67
2018-11-05T20:08:32.033Z,22.07
2018-11-05T20:11:03.720Z,22.37
2018-11-05T20:13:36.133Z,24.27
2018-11-05T20:16:08.154Z,21.67
2018-11-05T20:18:41.018Z,22.20
2018-11-05T20:21:12.263Z,22.67
2018-11-05T20:23:43.371Z,20.87
2018-11-05T20:26:15.367Z,21.07
2018-11-05T20:28:46.591Z,19.70
2018-11-05T20:31:18.636Z,19.83
2018-11-05T20:33:50.248Z,20.13
2018-11-05T20:36:23.051Z,22.17
2018-11-05T20:38:54.179Z,20.83
2018-11-05T20:41:26.486Z,19.23
2018-11-05T20:43:59.727Z,19.60
2018-11-05T20:46:30.918Z,17.73
2018-11-05T20:49:02.444Z,19.23
2018-11-05T20:51:35.283Z,17.80
2018-11-05T20:54:07.687Z,18.23
2018-11-05T20:56:39.631Z,20.90
2018-11-05T20:59:11.508Z,17.60
2018-11-05T21:01:43.725Z,17.53
2018-11-05T21:04:15.425Z,16.57
2018-11-05T21:06:47.236Z,16.60
2018-11-05T21:09:18.905Z,15.67
2018-11-05T21:11:50.686Z,16.20
2018-11-05T21:14:23.983Z,15.37
2018-11-05T21:16:56.043Z,15.60
2018-11-05T21:19:27.607Z,14.77
2018-11-05T21:21:59.312Z,14.60
2018-11-05T21:24:32.655Z,16.53
2018-11-05T21:27:04.490Z,16.67
2018-11-05T21:29:36.118Z,15.33
2018-11-05T21:32:09.134Z,15.93
2018-11-05T21:34:40.572Z,15.50
2018-11-05T21:37:12.477Z,16.00
2018-11-05T21:39:45.247Z,15.30
2018-11-05T21:42:17.280Z,15.27
2018-11-05T21:44:49.590Z,15.40
2018-11-05T21:47:21.629Z,16.50
2018-11-05T21:49:53.363Z,15.10
2018-11-05T21:52:25.894Z,15.77
2018-11-05T21:54:58.673Z,16.07
2018-11-05T21:57:30.265Z,16.30
2018-11-05T22:00:02.041Z,15.87
2018-11-05T22:02:39.132Z,16.50
2018-11-05T22:05:11.011Z,16.00
2018-11-05T22:07:42.591Z,15.40
2018-11-05T22:10:14.943Z,15.07
2018-11-05T22:12:47.463Z,14.70
2018-11-05T22:15:19.037Z,13.83
2018-11-05T22:17:50.218Z,14.27
2018-11-05T22:20:21.655Z,13.90
2018-11-05T22:22:53.745Z,12.97
2018-11-05T22:25:25.153Z,12.83
2018-11-05T22:27:57.842Z,12.47
2018-11-05T22:30:29.408Z,11.10
2018-11-05T22:33:00.995Z,11.43
2018-11-05T22:35:33.558Z,12.00
2018-11-05T22:38:05.603Z,11.43
2018-11-05T22:40:36.920Z,12.43
2018-11-05T22:43:08.488Z,12.50
2018-11-05T22:45:40.113Z,11.63
2018-11-05T22:48:12.969Z,11.93
2018-11-05T22:50:44.621Z,11.70
2018-11-05T22:53:16.631Z,12.57
2018-11-05T22:55:48.405Z,11.77
2018-11-05T22:58:20.154Z,10.67
2018-11-05T23:00:58.532Z,11.30
2018-11-05T23:03:32.139Z,10.53
2018-11-05T23:06:03.723Z,11.50
2018-11-05T23:08:37.085Z,11.67
2018-11-05T23:11:12.057Z,11.20
2018-11-05T23:13:44.126Z,13.43
2018-11-05T23:16:16.126Z,14.03
2018-11-05T23:18:47.786Z,12.13
2018-11-05T23:21:19.399Z,11.87
2018-11-05T23:23:50.862Z,12.43
2018-11-05T23:26:23.787Z,11.60
2018-11-05T23:28:57.178Z,12.67
2018-11-05T23:31:28.843Z,11.83
2018-11-05T23:34:00.813Z,12.13
2018-11-05T23:36:32.779Z,12.53
2018-11-05T23:39:05.974Z,12.73
2018-11-05T23:41:38.777Z,11.37
2018-11-05T23:44:10.311Z,12.50
2018-11-05T23:46:41.633Z,10.97
2018-11-05T23:49:13.335Z,10.57
2018-11-05T23:51:44.691Z,11.37
2018-11-05T23:54:16.127Z,11.67
2018-11-05T23:56:48.109Z,11.30
2018-11-05T23:59:20.425Z,11.23
